createdAt,value
2023-02-27T00:00:56.711Z,102112.47
2023-02-27T00:03:24.758Z,102117.91
2023-02-27T00:05:52.212Z,102104.22
2023-02-27T00:08:19.728Z,102112.47
2023-02-27T00:10:47.041Z,102110.41
2023-02-27T00:13:14.467Z,102112.56
2023-02-27T00:15:41.631Z,102110.09
2023-02-27T00:18:08.872Z,102120.50
2023-02-27T00:20:38.354Z,102109.13
2023-02-27T00:23:06.893Z,102108.25
2023-02-27T00:25:35.419Z,102113.38
2023-02-27T00:28:04.361Z,102109.81
2023-02-27T00:30:31.878Z,102112.97
2023-02-27T00:32:59.312Z,102109.59
2023-02-27T00:35:26.742Z,102119.53
2023-02-27T00:37:54.440Z,102115.66
2023-02-27T00:40:22.117Z,102122.72
2023-02-27T00:42:49.624Z,102127.06
2023-02-27T00:45:17.013Z,102122.59
2023-02-27T00:47:44.159Z,102123.47
2023-02-27T00:50:12.194Z,102119.72
2023-02-27T00:52:39.675Z,102123.59
2023-02-27T00:55:10.094Z,102119.03
2023-02-27T00:57:38.821Z,102126.13
2023-02-27T01:00:10.329Z,102116.47
2023-02-27T01:02:39.013Z,102115.16
2023-02-27T01:05:08.913Z,102127.06
2023-02-27T01:07:37.716Z,102126.16
2023-02-27T01:10:06.729Z,102123.97
2023-02-27T01:12:34.609Z,102117.56
2023-02-27T01:15:02.593Z,102112.88
2023-02-27T01:17:30.092Z,102126.16
2023-02-27T01:19:57.324Z,102120.50
2023-02-27T01:22:25.035Z,102118.03
2023-02-27T01:24:52.524Z,102115.47
2023-02-27T01:27:20.198Z,102115.97
2023-02-27T01:29:47.500Z,102130.63
2023-02-27T01:32:14.913Z,102132.50
2023-02-27T01:34:42.626Z,102122.19
2023-02-27T01:37:10.164Z,102124.25
2023-02-27T01:39:37.563Z,102121.13
2023-02-27T01:42:17.729Z,102121.22
2023-02-27T01:45:29.940Z,102119.19
2023-02-27T01:48:06.190Z,102116.63
2023-02-27T01:50:37.973Z,102117.41
2023-02-27T01:53:06.841Z,102119.44
2023-02-27T01:55:38.703Z,102120.69
2023-02-27T01:58:09.904Z,102121.69
2023-02-27T02:00:38.181Z,102120.88
2023-02-27T02:03:25.749Z,102118.03
2023-02-27T02:05:57.115Z,102124.44
2023-02-27T02:08:28.148Z,102122.31
2023-02-27T02:10:58.351Z,102121.59
2023-02-27T02:13:25.956Z,102118.03
2023-02-27T02:16:25.636Z,102119.31
2023-02-27T02:18:56.381Z,102127.53
2023-02-27T02:22:07.495Z,102123.38
2023-02-27T02:24:53.255Z,102113.47
2023-02-27T02:27:39.306Z,102124.84
2023-02-27T02:30:37.775Z,102109.69
2023-02-27T02:33:19.547Z,102106.13
2023-02-27T02:36:11.818Z,102098.22
2023-02-27T02:39:15.660Z,102103.84
2023-02-27T02:41:57.863Z,102099.50
2023-02-27T02:44:45.358Z,102090.31
2023-02-27T02:47:22.933Z,102092.47
2023-02-27T02:50:13.451Z,102083.38
2023-02-27T02:52:59.494Z,102089.28
2023-02-27T02:55:34.752Z,102088.78
2023-02-27T02:58:14.342Z,102092.56
2023-02-27T03:01:06.047Z,102077.00
2023-02-27T03:03:48.678Z,102067.22
2023-02-27T03:06:27.743Z,102066.09
2023-02-27T03:09:18.527Z,102065.22
2023-02-27T03:11:49.130Z,102067.41
2023-02-27T03:14:40.538Z,102060.28
2023-02-27T03:17:18.048Z,102058.38
2023-02-27T03:19:53.914Z,102055.50
2023-02-27T03:22:50.943Z,102053.03
2023-02-27T03:25:20.623Z,102054.03
2023-02-27T03:28:02.925Z,102060.38
2023-02-27T03:30:34.534Z,102057.91
2023-02-27T03:33:15.517Z,102061.94
2023-02-27T03:36:11.351Z,102053.56
2023-02-27T03:39:00.764Z,102061.94
2023-02-27T03:41:36.020Z,102055.59
2023-02-27T03:44:38.777Z,102047.50
2023-02-27T03:47:06.596Z,102055.44
2023-02-27T03:49:34.564Z,102050.19
2023-02-27T03:52:02.268Z,102050.19
2023-02-27T03:54:36.507Z,102056.22
2023-02-27T03:57:06.496Z,102048.50
2023-02-27T03:59:35.560Z,102058.59
2023-02-27T04:02:04.850Z,102058.00
2023-02-27T04:04:35.756Z,102065.44
2023-02-27T04:08:01.334Z,102056.13
2023-02-27T04:10:52.876Z,102047.88
2023-02-27T04:13:56.995Z,102044.94
2023-02-27T04:16:46.082Z,102042.03
2023-02-27T04:19:28.744Z,102052.66
2023-02-27T04:22:29.135Z,102055.22
2023-02-27T04:25:19.922Z,102053.94
2023-02-27T04:28:14.217Z,102050.78
2023-02-27T04:31:05.833Z,102046.50
2023-02-27T04:33:49.303Z,102047.00
2023-02-27T04:36:44.786Z,102043.84
2023-02-27T04:39:26.500Z,102049.75
2023-02-27T04:42:10.525Z,102049.88
2023-02-27T04:44:40.192Z,102045.31
2023-02-27T04:47:11.510Z,102051.56
2023-02-27T04:49:54.773Z,102041.94
2023-02-27T04:52:30.128Z,102043.72
2023-02-27T04:55:11.346Z,102049.56
2023-02-27T04:57:47.028Z,102047.88
2023-02-27T05:00:16.838Z,102055.22
2023-02-27T05:02:50.417Z,102058.50
2023-02-27T05:05:30.353Z,102057.00
2023-02-27T05:08:16.719Z,102050.16
2023-02-27T05:10:57.818Z,102049.09
2023-02-27T05:13:30.397Z,102057.59
2023-02-27T05:16:22.025Z,102054.84
2023-02-27T05:18:49.967Z,102054.94
2023-02-27T05:21:34.472Z,102058.38
2023-02-27T05:24:30.361Z,102070.16
2023-02-27T05:27:18.672Z,102066.78
2023-02-27T05:29:56.678Z,102073.72
2023-02-27T05:32:30.251Z,102078.47
2023-02-27T05:35:24.093Z,102083.13
2023-02-27T05:38:00.779Z,102075.72
2023-02-27T05:40:35.578Z,102061.13
2023-02-27T05:43:24.612Z,102082.59
2023-02-27T05:45:59.780Z,102087.03
2023-02-27T05:48:32.500Z,102088.41
2023-02-27T05:51:00.396Z,102084.88
2023-02-27T05:53:33.792Z,102074.56
2023-02-27T05:56:03.600Z,102081.38
2023-02-27T05:58:43.499Z,102082.16
2023-02-27T06:01:12.359Z,102076.50
2023-02-27T06:03:41.534Z,102077.78
2023-02-27T06:06:14.778Z,102084.63
2023-02-27T06:08:42.584Z,102074.44
2023-02-27T06:11:10.081Z,102073.03
2023-02-27T06:13:37.962Z,102083.31
2023-02-27T06:16:09.575Z,102073.50
2023-02-27T06:18:37.167Z,102084.09
2023-02-27T06:21:05.205Z,102077.47
2023-02-27T06:23:32.684Z,102095.38
2023-02-27T06:26:00.209Z,102083.59
2023-02-27T06:28:27.948Z,102090.84
2023-02-27T06:30:57.372Z,102090.34
2023-02-27T06:33:28.579Z,102098.34
2023-02-27T06:35:56.098Z,102106.38
2023-02-27T06:38:23.360Z,102107.66
2023-02-27T06:40:53.544Z,102106.88
2023-02-27T06:43:23.289Z,102114.50
2023-02-27T06:45:54.693Z,102115.50
2023-02-27T06:48:22.441Z,102111.50
2023-02-27T06:50:56.864Z,102114.19
2023-02-27T06:53:25.035Z,102107.13
2023-02-27T06:55:52.601Z,102106.31
2023-02-27T06:58:20.213Z,102106.53
2023-02-27T07:00:47.675Z,102124.88
2023-02-27T07:03:15.098Z,102120.38
2023-02-27T07:05:42.731Z,102118.81
2023-02-27T07:08:11.114Z,102118.19
2023-02-27T07:10:40.068Z,102129.84
2023-02-27T07:13:07.511Z,102118.13
2023-02-27T07:15:34.921Z,102115.38
2023-02-27T07:18:02.676Z,102117.81
2023-02-27T07:20:30.092Z,102109.22
2023-02-27T07:22:57.505Z,102119.91
2023-02-27T07:25:24.612Z,102131.59
2023-02-27T07:27:51.937Z,102123.78
2023-02-27T07:30:19.683Z,102123.59
2023-02-27T07:32:47.450Z,102137.31
2023-02-27T07:35:14.899Z,102134.75
2023-02-27T07:37:42.233Z,102129.53
2023-02-27T07:40:09.824Z,102133.09
2023-02-27T07:42:37.311Z,102133.53
2023-02-27T07:45:06.059Z,102136.66
2023-02-27T07:47:33.839Z,102132.66
2023-02-27T07:50:01.310Z,102131.28
2023-02-27T07:54:55.743Z,102134.06
2023-02-27T07:57:23.030Z,102133.53
2023-02-27T07:59:50.350Z,102140.88
2023-02-27T08:02:17.781Z,102134.38
2023-02-27T08:04:45.150Z,102139.91
2023-02-27T08:07:12.587Z,102143.00
2023-02-27T08:09:39.885Z,102140.25
2023-02-27T08:12:07.468Z,102152.19
2023-02-27T08:14:34.899Z,102147.94
2023-02-27T08:17:02.860Z,102158.66
2023-02-27T08:19:30.448Z,102149.13
2023-02-27T08:21:57.934Z,102158.72
2023-02-27T08:24:25.788Z,102148.94
2023-02-27T08:26:53.312Z,102153.16
2023-02-27T08:29:20.859Z,102149.13
2023-02-27T08:31:48.566Z,102166.03
2023-02-27T08:34:16.633Z,102157.00
2023-02-27T08:36:44.176Z,102154.56
2023-02-27T08:39:11.467Z,102160.44
2023-02-27T08:41:38.722Z,102164.47
2023-02-27T08:44:06.178Z,102160.03
2023-02-27T08:46:33.875Z,102160.03
2023-02-27T08:49:01.277Z,102162.31
2023-02-27T08:51:29.285Z,102163.63
2023-02-27T08:53:59.107Z,102166.13
2023-02-27T08:56:28.255Z,102167.72
2023-02-27T08:58:56.602Z,102157.84
2023-02-27T09:01:27.457Z,102162.13
2023-02-27T09:03:55.345Z,102159.69
2023-02-27T09:06:25.131Z,102161.34
2023-02-27T09:08:53.724Z,102164.72
2023-02-27T09:11:21.462Z,102161.28
2023-02-27T09:13:49.151Z,102159.50
2023-02-27T09:16:16.675Z,102169.13
2023-02-27T09:18:44.574Z,102160.09
2023-02-27T09:21:12.582Z,102164.72
2023-02-27T09:23:40.657Z,102158.97
2023-02-27T09:26:09.370Z,102163.19
2023-02-27T09:28:37.693Z,102161.03
2023-02-27T09:31:07.221Z,102162.53
2023-02-27T09:33:37.280Z,102173.06
2023-02-27T09:36:06.614Z,102174.72
2023-02-27T09:38:35.803Z,102161.81
2023-02-27T09:41:07.671Z,102168.16
2023-02-27T09:43:50.290Z,102179.41
2023-02-27T09:46:22.117Z,102172.69
2023-02-27T09:48:51.748Z,102176.50
2023-02-27T09:51:30.542Z,102180.84
2023-02-27T09:54:01.647Z,102186.13
2023-02-27T09:56:35.722Z,102210.09
2023-02-27T09:59:36.900Z,102194.81
2023-02-27T10:02:23.230Z,102178.56
2023-02-27T10:05:02.443Z,102204.16
2023-02-27T10:07:42.813Z,102176.88
2023-02-27T10:10:16.238Z,102186.00
2023-02-27T10:12:50.106Z,102196.72
2023-02-27T10:15:43.620Z,102196.50
2023-02-27T10:18:26.905Z,102191.38
2023-02-27T10:21:12.169Z,102201.81
2023-02-27T10:23:53.400Z,102186.34
2023-02-27T10:26:25.038Z,102266.53
2023-02-27T10:28:53.028Z,102181.97
2023-02-27T10:31:31.731Z,102205.75
2023-02-27T10:34:00.876Z,102189.63
2023-02-27T10:36:34.146Z,102189.22
2023-02-27T10:39:07.500Z,102230.41
2023-02-27T10:41:37.145Z,102201.44
2023-02-27T10:44:05.164Z,102198.50
2023-02-27T10:46:36.881Z,102182.81
2023-02-27T10:49:22.085Z,102204.38
2023-02-27T10:52:11.783Z,102173.31
2023-02-27T10:54:41.487Z,102173.53
2023-02-27T10:57:33.634Z,102170.44
2023-02-27T11:00:25.896Z,102178.59
2023-02-27T11:02:54.560Z,102187.47
2023-02-27T11:05:36.778Z,102200.28
2023-02-27T11:08:21.127Z,102174.88
2023-02-27T11:11:27.583Z,102188.34
2023-02-27T11:14:14.943Z,102159.91
2023-02-27T11:17:20.750Z,102170.38
2023-02-27T11:19:48.253Z,102173.59
2023-02-27T11:22:20.387Z,102171.28
2023-02-27T11:24:48.363Z,102161.16
2023-02-27T11:27:29.959Z,102165.50
2023-02-27T11:29:58.304Z,102166.47
2023-02-27T11:32:36.134Z,102159.03
2023-02-27T11:35:05.021Z,102150.03
2023-02-27T11:37:36.852Z,102149.59
2023-02-27T11:40:12.835Z,102155.06
2023-02-27T11:42:50.086Z,102171.72
2023-02-27T11:46:09.897Z,102149.78
2023-02-27T11:48:29.914Z,102143.84
2023-02-27T11:51:03.456Z,102133.44
2023-02-27T11:54:13.528Z,102178.81
2023-02-27T11:56:55.064Z,102137.19
2023-02-27T11:59:25.197Z,102113.34
2023-02-27T12:02:20.583Z,102107.22
2023-02-27T12:05:09.597Z,102113.69
2023-02-27T12:08:01.445Z,102112.47
2023-02-27T12:10:32.492Z,102117.78
2023-02-27T12:13:11.490Z,102094.78
2023-02-27T12:15:45.502Z,102106.84
2023-02-27T12:18:16.559Z,102089.88
2023-02-27T12:20:55.210Z,102096.47
2023-02-27T12:23:34.809Z,102082.94
2023-02-27T12:26:20.364Z,102083.44
2023-02-27T12:28:59.950Z,102084.66
2023-02-27T12:31:51.691Z,102062.56
2023-02-27T12:34:22.077Z,102054.44
2023-02-27T12:36:49.732Z,102066.59
2023-02-27T12:39:21.017Z,102048.38
2023-02-27T12:42:09.680Z,102043.25
2023-02-27T12:44:47.365Z,102047.56
2023-02-27T12:47:33.282Z,102044.72
2023-02-27T12:50:12.342Z,102027.28
2023-02-27T12:53:18.423Z,102026.63
2023-02-27T12:56:19.529Z,102036.16
2023-02-27T12:58:56.374Z,102055.38
2023-02-27T13:01:53.364Z,102032.41
2023-02-27T13:04:31.246Z,102012.66
2023-02-27T13:07:08.843Z,102018.56
2023-02-27T13:10:02.167Z,102016.13
2023-02-27T13:12:39.634Z,102003.63
2023-02-27T13:15:55.498Z,101991.63
2023-02-27T13:18:37.303Z,101998.53
2023-02-27T13:21:13.194Z,101986.44
2023-02-27T13:23:49.761Z,101981.75
2023-02-27T13:26:28.959Z,101980.72
2023-02-27T13:28:57.995Z,101990.66
2023-02-27T13:31:57.783Z,101984.75
2023-02-27T13:34:43.729Z,101989.88
2023-02-27T13:37:11.352Z,101996.94
2023-02-27T13:39:53.400Z,101989.03
2023-02-27T13:42:27.288Z,101993.63
2023-02-27T13:44:58.632Z,101977.63
2023-02-27T13:47:49.845Z,102009.38
2023-02-27T13:50:17.272Z,101981.78
2023-02-27T13:52:47.011Z,101989.97
2023-02-27T13:55:29.645Z,101991.50
2023-02-27T13:58:00.082Z,102020.28
2023-02-27T14:00:33.165Z,101985.53
2023-02-27T14:03:20.674Z,102003.59
2023-02-27T14:05:51.825Z,101995.97
2023-02-27T14:08:30.622Z,101999.00
2023-02-27T14:11:18.363Z,101983.56
2023-02-27T14:13:45.979Z,102003.94
2023-02-27T14:16:40.116Z,102005.59
2023-02-27T14:19:16.553Z,101997.25
2023-02-27T14:22:01.635Z,102007.97
2023-02-27T14:24:36.520Z,101996.19
2023-02-27T14:27:06.822Z,102001.63
2023-02-27T14:29:35.367Z,102001.53
2023-02-27T14:32:07.138Z,101986.09
2023-02-27T14:34:36.350Z,101987.97
2023-02-27T14:37:07.551Z,101986.50
2023-02-27T14:39:37.578Z,101986.25
2023-02-27T14:42:44.377Z,102009.53
2023-02-27T14:45:20.725Z,101991.94
2023-02-27T14:47:49.168Z,101995.59
2023-02-27T14:50:27.925Z,101980.59
2023-02-27T14:52:55.991Z,102022.56
2023-02-27T14:55:49.569Z,101981.22
2023-02-27T14:58:19.758Z,101998.38
2023-02-27T15:01:10.675Z,101978.88
2023-02-27T15:03:48.496Z,101978.38
2023-02-27T15:06:29.517Z,101977.50
2023-02-27T15:08:57.361Z,101971.88
2023-02-27T15:11:25.180Z,101961.88
2023-02-27T15:14:06.482Z,101970.28
2023-02-27T15:16:37.551Z,101967.91
2023-02-27T15:19:13.012Z,101967.13
2023-02-27T15:21:45.401Z,101963.81
2023-02-27T15:24:40.480Z,101973.22
2023-02-27T15:27:22.828Z,101980.53
2023-02-27T15:29:55.397Z,101961.91
2023-02-27T15:32:33.693Z,101970.94
2023-02-27T15:35:05.606Z,101974.44
2023-02-27T15:37:34.669Z,101974.50
2023-02-27T15:40:02.915Z,101973.59
2023-02-27T15:42:37.643Z,101975.31
2023-02-27T15:45:07.014Z,101981.41
2023-02-27T15:47:35.739Z,101979.25
2023-02-27T15:50:10.802Z,101974.16
2023-02-27T15:52:53.553Z,101978.34
2023-02-27T15:55:27.688Z,101979.41
2023-02-27T15:58:03.380Z,101983.84
2023-02-27T16:00:34.765Z,101979.34
2023-02-27T16:03:02.891Z,101975.69
2023-02-27T16:05:41.899Z,101986.06
2023-02-27T16:08:18.642Z,101987.72
2023-02-27T16:10:47.606Z,101986.97
2023-02-27T16:13:27.836Z,101993.50
2023-02-27T16:16:21.476Z,101994.22
2023-02-27T16:19:00.249Z,101994.09
2023-02-27T16:21:31.340Z,101990.56
2023-02-27T16:24:20.216Z,101997.09
2023-02-27T16:26:52.735Z,102003.59
2023-02-27T16:29:28.979Z,102002.69
2023-02-27T16:31:58.211Z,102017.63
2023-02-27T16:34:44.279Z,102009.66
2023-02-27T16:37:23.207Z,102025.28
2023-02-27T16:39:52.323Z,102016.44
2023-02-27T16:42:20.584Z,102021.97
2023-02-27T16:44:49.206Z,102017.78
2023-02-27T16:47:16.577Z,102015.91
2023-02-27T16:49:45.718Z,102025.47
2023-02-27T16:52:13.101Z,102034.19
2023-02-27T16:54:40.630Z,102022.56
2023-02-27T16:57:09.761Z,102043.47
2023-02-27T16:59:42.483Z,102034.41
2023-02-27T17:02:15.006Z,102033.88
2023-02-27T17:04:48.111Z,102044.06
2023-02-27T17:07:17.960Z,102055.53
2023-02-27T17:09:47.139Z,102049.50
2023-02-27T17:12:14.999Z,102051.16
2023-02-27T17:14:42.682Z,102062.50
2023-02-27T17:17:11.601Z,102068.50
2023-02-27T17:19:39.485Z,102065.78
2023-02-27T17:22:07.419Z,102055.75
2023-02-27T17:24:34.907Z,102062.22
2023-02-27T17:27:02.341Z,102062.91
2023-02-27T17:29:29.676Z,102071.47
2023-02-27T17:31:57.696Z,102061.97
2023-02-27T17:34:25.512Z,102072.97
2023-02-27T17:36:53.467Z,102068.84
2023-02-27T17:39:20.914Z,102067.22
2023-02-27T17:41:48.468Z,102074.66
2023-02-27T17:44:15.769Z,102079.56
2023-02-27T17:46:43.088Z,102086.81
2023-02-27T17:49:10.380Z,102093.22
2023-02-27T17:51:38.111Z,102093.66
2023-02-27T17:54:06.934Z,102091.66
2023-02-27T17:56:36.757Z,102108.38
2023-02-27T17:59:05.376Z,102106.41
2023-02-27T18:01:33.023Z,102111.38
2023-02-27T18:04:00.490Z,102126.50
2023-02-27T18:06:28.885Z,102120.66
2023-02-27T18:08:56.398Z,102117.00
2023-02-27T18:11:23.929Z,102129.41
2023-02-27T18:13:51.699Z,102128.53
2023-02-27T18:16:22.062Z,102123.13
2023-02-27T18:18:50.559Z,102129.47
2023-02-27T18:21:20.809Z,102131.41
2023-02-27T18:23:50.128Z,102136.69
2023-02-27T18:26:29.984Z,102139.13
2023-02-27T18:29:04.285Z,102146.97
2023-02-27T18:31:41.002Z,102152.06
2023-02-27T18:34:09.265Z,102155.88
2023-02-27T18:36:37.330Z,102163.22
2023-02-27T18:39:06.475Z,102167.94
2023-02-27T18:41:34.841Z,102160.47
2023-02-27T18:44:02.744Z,102176.47
2023-02-27T18:46:30.723Z,102171.53
2023-02-27T18:48:58.975Z,102175.84
2023-02-27T18:51:26.492Z,102185.69
2023-02-27T18:53:54.107Z,102190.22
2023-02-27T18:56:23.003Z,102187.41
2023-02-27T18:58:51.496Z,102190.88
2023-02-27T19:01:27.745Z,102196.09
2023-02-27T19:04:00.540Z,102207.34
2023-02-27T19:06:28.614Z,102208.69
2023-02-27T19:08:56.393Z,102207.81
2023-02-27T19:11:33.121Z,102209.06
2023-02-27T19:14:02.847Z,102207.47
2023-02-27T19:16:31.071Z,102206.31
2023-02-27T19:19:00.665Z,102210.88
2023-02-27T19:21:28.462Z,102212.66
2023-02-27T19:23:56.053Z,102217.28
2023-02-27T19:26:24.642Z,102221.56
2023-02-27T19:28:55.947Z,102218.31
2023-02-27T19:31:24.496Z,102224.28
2023-02-27T19:33:52.103Z,102227.56
2023-02-27T19:36:21.713Z,102231.22
2023-02-27T19:38:50.071Z,102245.41
2023-02-27T19:41:19.445Z,102240.31
2023-02-27T19:43:48.647Z,102247.81
2023-02-27T19:46:28.782Z,102254.84
2023-02-27T19:48:59.542Z,102252.09
2023-02-27T19:51:27.307Z,102252.63
2023-02-27T19:53:54.982Z,102247.28
2023-02-27T19:56:25.129Z,102248.97
2023-02-27T19:58:52.982Z,102256.97
2023-02-27T20:01:31.012Z,102250.75
2023-02-27T20:04:00.073Z,102250.38
2023-02-27T20:06:30.252Z,102258.41
2023-02-27T20:08:59.075Z,102252.72
2023-02-27T20:11:33.127Z,102257.06
2023-02-27T20:14:01.472Z,102252.22
2023-02-27T20:16:30.823Z,102270.00
2023-02-27T20:18:58.567Z,102266.94
2023-02-27T20:21:28.701Z,102263.38
2023-02-27T20:23:58.406Z,102269.69
2023-02-27T20:26:32.799Z,102265.69
2023-02-27T20:29:04.177Z,102280.28
2023-02-27T20:31:34.393Z,102279.59
2023-02-27T20:34:06.126Z,102271.13
2023-02-27T20:36:35.451Z,102272.81
2023-02-27T20:39:04.561Z,102282.06
2023-02-27T20:41:34.763Z,102289.38
2023-02-27T20:44:04.674Z,102291.63
2023-02-27T20:46:32.029Z,102290.19
2023-02-27T20:49:01.587Z,102290.81
2023-02-27T20:51:31.966Z,102291.53
2023-02-27T20:54:01.225Z,102300.06
2023-02-27T20:56:32.670Z,102297.66
2023-02-27T20:59:03.070Z,102294.44
2023-02-27T21:01:30.920Z,102301.09
2023-02-27T21:03:59.243Z,102304.47
2023-02-27T21:06:27.576Z,102299.66
2023-02-27T21:08:56.719Z,102295.38
2023-02-27T21:11:28.499Z,102312.50
2023-02-27T21:13:58.317Z,102302.38
2023-02-27T21:16:26.120Z,102313.28
2023-02-27T21:18:56.548Z,102308.13
2023-02-27T21:21:27.433Z,102316.69
2023-02-27T21:23:55.358Z,102318.06
2023-02-27T21:26:29.051Z,102308.91
2023-02-27T21:29:02.298Z,102308.72
2023-02-27T21:31:32.945Z,102316.19
2023-02-27T21:34:02.902Z,102309.25
2023-02-27T21:36:33.513Z,102306.22
2023-02-27T21:39:04.823Z,102325.72
2023-02-27T21:41:33.105Z,102318.28
2023-02-27T21:44:05.966Z,102313.19
2023-02-27T21:46:34.463Z,102321.66
2023-02-27T21:49:02.263Z,102313.97
2023-02-27T21:51:39.882Z,102326.44
2023-02-27T21:54:10.964Z,102318.00
2023-02-27T21:56:39.809Z,102325.13
2023-02-27T21:59:07.685Z,102314.81
2023-02-27T22:01:35.297Z,102314.84
2023-02-27T22:04:02.628Z,102314.13
2023-02-27T22:06:32.374Z,102311.47
2023-02-27T22:09:04.965Z,102314.13
2023-02-27T22:11:34.930Z,102311.66
2023-02-27T22:14:03.757Z,102314.69
2023-02-27T22:16:31.334Z,102306.69
2023-02-27T22:18:58.574Z,102307.91
2023-02-27T22:21:27.255Z,102312.56
2023-02-27T22:23:58.074Z,102312.56
2023-02-27T22:26:30.959Z,102304.28
2023-02-27T22:28:59.991Z,102311.94
2023-02-27T22:31:33.605Z,102309.78
2023-02-27T22:34:08.977Z,102304.81
2023-02-27T22:36:37.034Z,102318.31
2023-02-27T22:39:05.956Z,102314.84
2023-02-27T22:41:36.132Z,102320.72
2023-02-27T22:44:04.455Z,102317.13
2023-02-27T22:46:38.500Z,102320.91
2023-02-27T22:49:10.068Z,102316.06
2023-02-27T22:51:37.724Z,102320.44
2023-02-27T22:54:07.292Z,102330.31
2023-02-27T22:56:36.604Z,102334.81
2023-02-27T22:59:05.634Z,102332.63
2023-02-27T23:01:35.931Z,102328.16
2023-02-27T23:04:07.446Z,102335.00
2023-02-27T23:06:40.007Z,102324.41
2023-02-27T23:09:10.942Z,102329.47
2023-02-27T23:11:38.765Z,102331.16
2023-02-27T23:14:06.688Z,102334.50
2023-02-27T23:16:34.356Z,102327.66
2023-02-27T23:19:02.620Z,102327.44
2023-02-27T23:21:35.187Z,102327.16
2023-02-27T23:24:05.499Z,102329.72
2023-02-27T23:26:36.123Z,102333.53
2023-02-27T23:29:04.197Z,102324.97
2023-02-27T23:31:34.264Z,102328.53
2023-02-27T23:34:05.135Z,102328.88
2023-02-27T23:36:36.813Z,102327.56
2023-02-27T23:39:05.768Z,102335.22
2023-02-27T23:41:33.497Z,102332.34
2023-02-27T23:44:01.833Z,102335.81
2023-02-27T23:46:30.806Z,102329.94
2023-02-27T23:48:59.691Z,102336.97
2023-02-27T23:51:30.097Z,102339.47
2023-02-27T23:53:58.422Z,102345.81
2023-02-27T23:56:28.986Z,102351.88
2023-02-27T23:59:01.949Z,102351.47
